Latest Weather Observations for St Lawrence

IDQ60801

Issued at 3:12 pm EST Monday 30 March 2020 (issued every 10 minutes, with the page automatically refreshed every 10 minutes)

About weather observations | Map of weather stations | Latest weather observations for QLD | Other Formats
Station Details ID: 033210 Name: ST LAWRENCE Lat: -22.35 Lon: 149.52 Height: 9.19 m
Data from the previous 72 hours. | See also: Recent months at St Lawrence
Date/Time
EST
Temp
°C
App
Temp
°C
Dew
Point
°C
Rel
Hum
%
Delta-T
°C
Wind Press
QNH
hPa
Press
MSL
hPa
Rain since
9am
mm
Dir  Spd
km/h
Gust
km/h
Spd
kts
Gust
kts
30/03:00pm 29.0 29.4 19.0 54 6.5 NNE 15 20 8 11 1012.6 1012.5 0.0
30/02:30pm 29.8 29.9 19.2 53 6.9 NNE 17 24 9 13 1012.6 1012.5 0.0
30/02:00pm 29.9 29.4 18.7 51 7.2 NNE 19 24 10 13 1012.8 1012.7 0.0
30/01:30pm 30.6 29.7 18.3 47 7.9 NNE 20 30 11 16 1013.0 1012.9 0.0
30/01:00pm 30.1 29.5 18.5 49 7.5 NNE 19 26 10 14 1013.2 1013.1 0.0
30/12:30pm 29.9 29.4 18.7 51 7.2 NE 19 26 10 14 1013.8 1013.7 0.0
30/12:00pm 30.1 30.0 19.5 53 6.9 NNE 19 26 10 14 1014.3 1014.2 0.0
30/11:30am 29.3 31.1 18.7 52 6.8 ENE 7 11 4 6 1014.7 1014.6 0.0
30/11:00am 29.4 30.9 18.8 53 6.8 ENE 9 15 5 8 1015.3 1015.2 0.0
30/10:30am 28.1 30.1 19.9 61 5.4 ESE 9 15 5 8 1015.5 1015.4 0.0
30/10:00am 27.4 29.3 19.7 63 5.0 SE 9 17 5 9 1015.7 1015.6 0.0
30/09:30am 26.8 29.4 20.4 68 4.2 SE 7 13 4 7 1015.5 1015.4 0.0
30/09:00am 25.9 28.2 20.7 73 3.4 SSE 9 15 5 8 1015.6 1015.5 0.2
30/08:30am 25.0 27.0 20.7 77 2.8 SSE 11 15 6 8 1015.6 1015.5 0.2
30/08:00am 23.8 25.5 20.1 80 2.4 SSE 11 17 6 9 1015.5 1015.4 0.2
30/07:30am 23.0 25.3 20.7 87 1.5 S 9 13 5 7 1015.1 1015.0 0.2
30/07:00am 21.7 23.6 19.8 89 1.2 SSE 9 13 5 7 1014.8 1014.7 0.2
30/06:30am 21.1 22.9 19.6 91 1.0 SSE 9 13 5 7 1014.6 1014.5 0.2
30/06:00am 21.0 22.8 19.5 91 1.0 SSE 9 13 5 7 1014.3 1014.2 0.2
30/05:30am 21.2 23.0 19.5 90 1.1 SSE 9 13 5 7 1014.0 1013.9 0.2
30/05:00am 21.3 23.5 19.6 90 1.1 SSE 7 11 4 6 1014.0 1013.9 0.2
30/04:30am 21.4 23.3 19.7 90 1.1 SSE 9 11 5 6 1014.0 1013.9 0.2
30/04:00am 21.5 23.3 19.6 89 1.2 SSE 9 13 5 7 1013.8 1013.7 0.2
30/03:30am 21.4 23.6 19.7 90 1.1 SSE 7 11 4 6 1013.9 1013.8 0.2
30/03:00am 21.6 23.9 19.9 90 1.1 SE 7 9 4 5 1014.1 1014.0 0.2
30/02:30am 21.6 23.6 19.9 90 1.1 SSE 9 11 5 6 1014.7 1014.6 0.2
30/02:00am 21.7 24.1 20.0 90 1.1 SSE 7 9 4 5 1014.7 1014.6 0.2
30/01:30am 21.7 25.4 20.0 90 1.1 CALM 0 0 0 0 1014.9 1014.8 0.2
30/01:00am 22.0 24.4 20.1 89 1.2 SSE 7 11 4 6 1015.2 1015.1 0.2
30/12:30am 22.2 24.7 20.3 89 1.2 SSE 7 9 4 5 1015.4 1015.3 0.2
30/12:00am 22.7 25.1 20.8 89 1.2 SSE 9 11 5 6 1015.9 1015.8 0.2
 
Date/Time
EST
Temp
°C
App
Temp
°C
Dew
Point
°C
Rel
Hum
%
Delta-T
°C
Wind Press
QNH
hPa
Press
MSL
hPa
Rain since
9am
mm
Dir  Spd
km/h
Gust
km/h
Spd
kts
Gust
kts
29/11:30pm 22.8 25.7 21.1 90 1.1 SSE 7 9 4 5 1016.0 1015.9 0.2
29/11:00pm 23.2 27.3 21.5 90 1.1 SSE 2 11 1 6 1016.1 1016.0 0.2
29/10:30pm 23.2 27.5 21.1 88 1.4 CALM 0 2 0 1 1016.0 1015.9 0.2
29/10:00pm 23.5 26.7 21.2 87 1.5 SSE 6 7 3 4 1016.1 1016.0 0.2
29/09:30pm 23.8 27.1 20.7 83 2.0 SSE 4 9 2 5 1016.0 1015.9 0.2
29/09:00pm 24.0 27.4 20.9 83 2.0 ESE 4 9 2 5 1015.6 1015.5 0.2
29/08:30pm 23.5 27.7 21.0 86 1.6 CALM 0 0 0 0 1015.3 1015.2 0.2
29/08:00pm 23.6 28.1 21.5 88 1.4 CALM 0 0 0 0 1015.3 1015.2 0.2
29/07:30pm 23.7 28.0 21.2 86 1.6 CALM 0 0 0 0 1015.0 1014.9 0.2
29/07:00pm 23.6 26.7 21.5 88 1.4 SW 7 11 4 6 1014.9 1014.8 0.2
29/06:30pm 24.0 27.3 21.5 86 1.7 W 6 9 3 5 1014.5 1014.4 0.2
29/06:00pm 24.7 27.9 21.6 83 2.1 W 7 11 4 6 1014.0 1013.9 0.2
29/05:30pm 24.6 27.6 21.3 82 2.2 WSW 7 13 4 7 1014.2 1014.1 0.2
29/05:00pm 25.6 27.9 20.6 74 3.3 SE 9 19 5 10 1013.8 1013.7 0.2
29/04:30pm 28.0 29.5 20.6 64 4.9 NNE 13 19 7 10 1013.2 1013.1 0.2
29/04:00pm 28.3 29.6 20.1 61 5.4 NE 13 19 7 10 1013.0 1012.9 0.2
29/03:30pm 28.1 30.4 20.6 63 4.9 SE 9 13 5 7 1013.1 1013.0 0.2
29/03:00pm 29.5 29.8 20.4 58 6.0 NNE 19 26 10 14 1012.9 1012.8 0.2
29/02:30pm 29.6 30.0 20.7 58 5.9 NNE 19 24 10 13 1013.1 1013.0 0.2
29/02:00pm 30.7 31.8 22.3 61 5.7 NNE 20 28 11 15 1013.2 1013.1 0.2
29/01:30pm 28.7 29.1 20.7 62 5.3 NNE 19 26 10 14 1013.5 1013.4 0.2
29/01:00pm 28.2 28.5 20.7 63 5.0 NNE 20 28 11 15 1013.9 1013.8 0.2
29/12:30pm 29.4 31.2 21.1 61 5.5 ENE 13 20 7 11 1014.1 1014.0 0.2
29/12:00pm 29.5 31.0 20.6 58 5.9 E 13 22 7 12 1014.5 1014.4 0.2
29/11:30am 28.8 30.2 20.3 60 5.6 ENE 13 19 7 10 1014.9 1014.8 0.2
29/11:00am 27.6 30.3 20.7 66 4.5 SE 7 13 4 7 1015.3 1015.2 0.2
29/10:30am 26.3 30.0 21.5 75 3.2 E 4 11 2 6 1015.8 1015.7 0.0
29/10:00am 26.6 28.7 20.2 68 4.2 SE 9 17 5 9 1015.9 1015.8 0.0
29/09:30am 26.3 27.8 20.6 71 3.7 SE 13 19 7 10 1016.1 1016.0 0.0
29/09:00am 25.8 27.7 20.6 73 3.4 SSE 11 19 6 10 1016.1 1016.0 0.0
29/08:30am 24.7 26.1 20.4 77 2.8 S 13 19 7 10 1015.9 1015.8 0.0
29/08:00am 23.8 25.6 20.3 81 2.3 S 11 17 6 9 1015.7 1015.6 0.0
29/07:30am 22.9 23.8 20.1 84 1.8 S 15 22 8 12 1015.4 1015.3 0.0
29/07:00am 22.1 24.1 20.0 88 1.3 S 9 15 5 8 1014.8 1014.7 0.0
29/06:30am 21.5 23.4 19.8 90 1.1 S 9 15 5 8 1014.5 1014.4 0.0
29/06:00am 21.6 23.6 19.9 90 1.1 SSE 9 13 5 7 1014.3 1014.2 0.0
29/05:30am 21.7 23.7 20.0 90 1.1 SSE 9 13 5 7 1014.1 1014.0 0.0
29/05:00am 21.7 23.7 20.0 90 1.1 SSE 9 13 5 7 1013.8 1013.7 0.0
29/04:30am 21.6 23.6 19.9 90 1.1 S 9 11 5 6 1013.7 1013.6 0.0
29/04:00am 21.6 23.6 19.9 90 1.1 SSE 9 13 5 7 1013.5 1013.4 0.0
29/03:30am 21.6 23.6 19.9 90 1.1 S 9 13 5 7 1013.6 1013.5 0.0
29/03:00am 21.8 23.7 19.7 88 1.3 SSE 9 11 5 6 1013.7 1013.6 0.0
29/02:30am 22.1 24.0 19.8 87 1.5 SSE 9 13 5 7 1014.0 1013.9 0.0
29/02:00am 22.3 24.2 19.7 85 1.7 SSE 9 11 5 6 1014.4 1014.3 0.0
29/01:30am 22.8 25.2 20.0 84 1.8 SSE 7 11 4 6 1015.0 1014.9 0.0
29/01:00am 22.8 25.2 20.0 84 1.8 SSE 7 9 4 5 1015.1 1015.0 0.0
29/12:30am 23.3 27.1 20.1 82 2.1 CALM 0 0 0 0 1015.3 1015.2 0.0
29/12:00am 23.7 26.4 20.2 81 2.3 SSE 6 9 3 5 1015.6 1015.5 0.0
 
Date/Time
EST
Temp
°C
App
Temp
°C
Dew
Point
°C
Rel
Hum
%
Delta-T
°C
Wind Press
QNH
hPa
Press
MSL
hPa
Rain since
9am
mm
Dir  Spd
km/h
Gust
km/h
Spd
kts
Gust
kts
28/11:30pm 23.8 27.7 20.3 81 2.3 CALM 0 7 0 4 1015.7 1015.6 0.0
28/11:00pm 24.0 26.6 20.1 79 2.5 SSE 6 9 3 5 1015.9 1015.8 0.0
28/10:30pm 24.3 26.8 20.2 78 2.7 SE 7 11 4 6 1016.0 1015.9 0.0
28/10:00pm 24.5 28.7 21.0 81 2.3 CALM 0 0 0 0 1016.1 1016.0 0.0
28/09:30pm 24.7 27.2 21.0 80 2.4 E 9 11 5 6 1015.9 1015.8 0.0
28/09:00pm 24.9 26.9 19.9 74 3.2 ESE 9 13 5 7 1015.8 1015.7 0.0
28/08:30pm 25.1 26.7 19.9 73 3.4 ESE 11 17 6 9 1015.4 1015.3 0.0
28/08:00pm 25.0 27.2 19.6 72 3.5 ESE 7 11 4 6 1015.1 1015.0 0.0
28/07:30pm 25.6 27.1 19.7 70 3.8 ESE 11 19 6 10 1014.5 1014.4 0.0
28/07:00pm 26.1 28.2 20.2 70 3.8 E 9 13 5 7 1014.1 1014.0 0.0
28/06:30pm 26.5 28.6 20.1 68 4.2 E 9 15 5 8 1013.7 1013.6 0.0
28/06:00pm 27.1 29.0 19.7 64 4.8 E 9 17 5 9 1013.4 1013.3 0.0
28/05:30pm 27.7 28.1 19.8 62 5.1 E 17 24 9 13 1013.0 1012.9 0.0
28/05:00pm 28.9 29.3 19.8 58 6.0 ENE 17 26 9 14 1012.7 1012.6 0.0
28/04:30pm 29.7 30.7 19.4 54 6.7 NE 13 24 7 13 1012.4 1012.3 0.0
28/04:00pm 29.7 30.2 20.0 56 6.4 NNE 17 24 9 13 1012.4 1012.3 0.0
28/03:30pm 29.7 29.6 20.0 56 6.4 NNE 20 26 11 14 1012.7 1012.6 0.0
28/03:00pm 28.8 28.9 20.0 59 5.8 NNE 19 24 10 13 1012.9 1012.8 0.0
28/02:30pm 29.1 29.5 19.1 54 6.5 ENE 15 24 8 13 1013.1 1013.0 0.0
28/02:00pm 29.3 31.1 18.7 52 6.8 ENE 7 13 4 7 1013.5 1013.4 0.0
28/01:30pm 29.6 31.5 19.0 53 6.9 E 7 13 4 7 1014.0 1013.9 0.0
28/01:00pm 30.0 31.2 20.0 55 6.6 ESE 13 22 7 12 1014.4 1014.3 0.0
28/12:30pm 29.3 30.0 19.6 56 6.3 ESE 15 24 8 13 1014.8 1014.7 0.0
28/12:00pm 29.1 29.8 18.8 53 6.6 E 13 20 7 11 1015.3 1015.2 0.0
28/11:30am 28.6 29.4 19.8 59 5.7 E 15 26 8 14 1015.5 1015.4 0.0
28/11:00am 28.5 29.8 19.4 57 5.9 ESE 11 24 6 13 1015.9 1015.8 0.0
28/10:30am 28.4 30.1 20.2 61 5.4 E 11 20 6 11 1016.2 1016.1 0.0
28/10:00am 27.5 28.8 20.1 64 4.8 SSE 13 22 7 12 1016.4 1016.3 0.0
28/09:30am 25.9 26.8 19.3 67 4.2 SSE 13 20 7 11 1016.4 1016.3 0.0
28/09:00am 25.4 26.0 19.5 70 3.8 SE 15 24 8 13 1016.4 1016.3 0.8
28/08:30am 24.5 24.4 18.7 70 3.7 S 17 24 9 13 1016.2 1016.1 0.8
28/08:00am 23.3 23.4 18.4 74 3.1 SSE 15 24 8 13 1015.9 1015.8 0.8
28/07:30am 22.4 22.9 18.4 78 2.5 S 13 22 7 12 1015.7 1015.6 0.8
28/07:00am 21.6 22.1 18.4 82 2.0 SSE 13 20 7 11 1015.4 1015.3 0.8
28/06:30am 21.2 21.8 18.6 85 1.6 SSE 13 19 7 10 1015.1 1015.0 0.8
28/06:00am 21.2 22.3 18.8 86 1.5 SSE 11 17 6 9 1015.0 1014.9 0.8
28/05:30am 21.4 22.2 19.0 86 1.5 S 13 17 7 9 1014.9 1014.8 0.8
28/05:00am 21.6 22.5 19.2 86 1.5 SSE 13 19 7 10 1014.7 1014.6 0.8
28/04:30am 21.5 23.1 19.1 86 1.5 SSE 9 11 5 6 1014.4 1014.3 0.8
28/04:00am 21.4 23.0 19.1 87 1.5 S 9 13 5 7 1014.6 1014.5 0.8
28/03:30am 21.6 23.1 19.0 85 1.6 S 9 11 5 6 1014.7 1014.6 0.8
28/03:00am 21.7 23.6 18.9 84 1.8 S 7 11 4 6 1014.8 1014.7 0.8
28/02:30am 21.8 23.3 18.8 83 1.9 S 9 13 5 7 1014.9 1014.8 0.8
28/02:00am 21.9 23.7 18.7 82 2.0 S 7 9 4 5 1015.2 1015.1 0.8
28/01:30am 21.8 23.6 18.8 83 1.9 SSE 7 9 4 5 1015.4 1015.3 0.8
28/01:00am 21.7 23.5 18.3 81 2.1 S 6 9 3 5 1015.7 1015.6 0.8
28/12:30am 22.1 23.6 18.1 78 2.5 S 7 9 4 5 1015.8 1015.7 0.8
28/12:00am 22.5 24.1 18.3 77 2.6 S 7 9 4 5 1016.1 1016.0 0.8
 
Date/Time
EST
Temp
°C
App
Temp
°C
Dew
Point
°C
Rel
Hum
%
Delta-T
°C
Wind Press
QNH
hPa
Press
MSL
hPa
Rain since
9am
mm
Dir  Spd
km/h
Gust
km/h
Spd
kts
Gust
kts
27/11:30pm 22.8 24.5 18.1 75 2.9 S 6 7 3 4 1016.4 1016.3 0.8
27/11:00pm 23.2 24.5 18.5 75 3.0 SSE 9 13 5 7 1016.6 1016.5 0.8
27/10:30pm 23.1 26.1 18.4 75 3.0 CALM 0 0 0 0 1016.9 1016.8 0.8
27/10:00pm 23.3 25.1 18.4 74 3.1 SSE 6 9 3 5 1016.8 1016.7 0.8
27/09:30pm 23.0 25.7 17.7 72 3.3 CALM 0 0 0 0 1016.8 1016.7 0.8
27/09:00pm 23.6 25.7 17.3 67 3.9 SSE 2 7 1 4 1016.7 1016.6 0.8
27/08:30pm 24.5 25.6 17.2 63 4.5 E 7 11 4 6 1016.6 1016.5 0.8
27/08:00pm 25.3 25.9 16.7 59 5.3 ESE 9 13 5 7 1016.5 1016.4 0.8
27/07:30pm 25.9 26.1 16.7 57 5.7 E 11 17 6 9 1016.1 1016.0 0.8
27/07:00pm 26.2 27.2 17.8 60 5.3 E 9 15 5 8 1015.6 1015.5 0.8
27/06:30pm 26.9 27.3 18.2 59 5.5 E 13 22 7 12 1015.0 1014.9 0.8
27/06:00pm 27.3 28.0 18.0 56 5.9 E 11 19 6 10 1014.6 1014.5 0.8
27/05:30pm 27.6 28.1 18.3 57 5.9 E 13 20 7 11 1014.4 1014.3 0.8
27/05:00pm 27.9 28.6 18.9 58 5.8 E 13 22 7 12 1014.2 1014.1 0.8
27/04:30pm 28.4 28.8 18.2 54 6.5 ESE 13 24 7 13 1014.0 1013.9 0.8
27/04:00pm 28.5 28.2 18.3 54 6.5 ESE 17 30 9 16 1013.9 1013.8 0.8
27/03:30pm 29.1 29.6 20.0 58 6.0 ESE 17 26 9 14 1013.7 1013.6 0.6

Other formats

Comma delimited format used in spreadsheet applications
http://www.bom.gov.au/fwo/IDQ60801/IDQ60801.95369.axf

JavaScript Object Notation format (JSON) in row-major order
http://www.bom.gov.au/fwo/IDQ60801/IDQ60801.95369.json

Data quality

Most of these data are generated automatically and are frequently updated. Quality checks on data are not normally performed. It is possible for incorrect values to appear. Refer to information at About Latest Weather Observations and please check the disclaimer before using these data.